sensor_id;sensor_type;location;lat;lon;timestamp;pressure;altitude;pressure_sealevel;temperature;humidity
76611;BME280;65503;48.534;9.062;2023-04-15T00:01:46;96003.69;;;6.03;62.60
76611;BME280;65503;48.534;9.062;2023-04-15T00:04:13;96011.41;;;5.98;62.45
76611;BME280;65503;48.534;9.062;2023-04-15T00:06:39;96011.13;;;5.88;62.93
76611;BME280;65503;48.534;9.062;2023-04-15T00:09:06;96008.38;;;5.82;63.28
76611;BME280;65503;48.534;9.062;2023-04-15T00:11:33;96005.69;;;5.89;63.05
76611;BME280;65503;48.534;9.062;2023-04-15T00:14:01;96004.22;;;5.93;62.65
76611;BME280;65503;48.534;9.062;2023-04-15T00:16:28;96005.47;;;5.91;62.79
76611;BME280;65503;48.534;9.062;2023-04-15T00:18:55;96002.94;;;5.84;63.28
76611;BME280;65503;48.534;9.062;2023-04-15T00:21:22;96009.72;;;5.73;63.57
76611;BME280;65503;48.534;9.062;2023-04-15T00:23:48;96008.19;;;5.66;63.64
76611;BME280;65503;48.534;9.062;2023-04-15T00:26:18;96012.16;;;5.57;63.81
76611;BME280;65503;48.534;9.062;2023-04-15T00:28:45;96011.44;;;5.50;64.42
76611;BME280;65503;48.534;9.062;2023-04-15T00:31:11;96005.28;;;5.44;64.36
76611;BME280;65503;48.534;9.062;2023-04-15T00:33:38;96004.56;;;5.37;65.03
76611;BME280;65503;48.534;9.062;2023-04-15T00:36:06;96006.63;;;5.35;64.65
76611;BME280;65503;48.534;9.062;2023-04-15T00:38:32;95993.00;;;5.33;64.97
76611;BME280;65503;48.534;9.062;2023-04-15T00:40:58;95996.28;;;5.28;64.64
76611;BME280;65503;48.534;9.062;2023-04-15T00:43:25;96003.16;;;5.23;65.23
76611;BME280;65503;48.534;9.062;2023-04-15T00:45:52;96000.41;;;5.18;65.02
76611;BME280;65503;48.534;9.062;2023-04-15T00:48:20;96001.97;;;5.19;65.16
76611;BME280;65503;48.534;9.062;2023-04-15T00:50:46;95995.41;;;5.16;65.21
76611;BME280;65503;48.534;9.062;2023-04-15T00:53:12;96002.09;;;5.12;65.17
76611;BME280;65503;48.534;9.062;2023-04-15T00:55:39;96001.28;;;5.12;65.42
76611;BME280;65503;48.534;9.062;2023-04-15T00:58:05;96008.06;;;5.13;65.06
76611;BME280;65503;48.534;9.062;2023-04-15T01:00:32;96004.31;;;5.09;65.80
76611;BME280;65503;48.534;9.062;2023-04-15T01:02:59;96004.53;;;5.07;65.62
76611;BME280;65503;48.534;9.062;2023-04-15T01:05:27;96012.59;;;5.06;65.00
76611;BME280;65503;48.534;9.062;2023-04-15T01:07:54;96009.84;;;5.01;65.33
76611;BME280;65503;48.534;9.062;2023-04-15T01:10:20;96011.06;;;4.98;65.50
76611;BME280;65503;48.534;9.062;2023-04-15T01:12:47;96012.28;;;4.95;66.19
76611;BME280;65503;48.534;9.062;2023-04-15T01:15:14;96009.78;;;4.89;66.25
76611;BME280;65503;48.534;9.062;2023-04-15T01:17:41;96008.84;;;4.83;66.12
76611;BME280;65503;48.534;9.062;2023-04-15T01:20:08;96012.88;;;4.79;66.11
76611;BME280;65503;48.534;9.062;2023-04-15T01:22:37;96009.69;;;4.77;66.60
76611;BME280;65503;48.534;9.062;2023-04-15T01:27:34;96005.63;;;4.81;66.74
76611;BME280;65503;48.534;9.062;2023-04-15T01:30:01;96008.84;;;4.83;65.92
76611;BME280;65503;48.534;9.062;2023-04-15T01:32:30;96012.59;;;4.87;66.16
76611;BME280;65503;48.534;9.062;2023-04-15T01:34:57;96016.19;;;4.86;65.73
76611;BME280;65503;48.534;9.062;2023-04-15T01:37:23;96007.72;;;4.73;66.42
76611;BME280;65503;48.534;9.062;2023-04-15T01:39:50;96008.16;;;4.70;66.33
76611;BME280;65503;48.534;9.062;2023-04-15T01:42:17;96008.38;;;4.68;66.38
76611;BME280;65503;48.534;9.062;2023-04-15T01:44:43;96004.16;;;4.67;66.40
76611;BME280;65503;48.534;9.062;2023-04-15T01:47:10;96004.16;;;4.67;66.26
76611;BME280;65503;48.534;9.062;2023-04-15T01:49:37;96003.00;;;4.63;65.87
76611;BME280;65503;48.534;9.062;2023-04-15T01:52:04;96006.72;;;4.55;66.51
76611;BME280;65503;48.534;9.062;2023-04-15T01:54:30;96004.97;;;4.49;67.31
76611;BME280;65503;48.534;9.062;2023-04-15T01:56:57;95998.38;;;4.47;67.10
76611;BME280;65503;48.534;9.062;2023-04-15T01:59:24;95994.75;;;4.48;67.20
76611;BME280;65503;48.534;9.062;2023-04-15T02:01:50;95992.56;;;4.45;66.76
76611;BME280;65503;48.534;9.062;2023-04-15T02:04:17;95997.22;;;4.43;66.63
76611;BME280;65503;48.534;9.062;2023-04-15T02:06:44;95995.63;;;4.42;66.58
76611;BME280;65503;48.534;9.062;2023-04-15T02:09:11;96000.81;;;4.42;66.40
76611;BME280;65503;48.534;9.062;2023-04-15T02:11:37;95995.63;;;4.42;66.44
76611;BME280;65503;48.534;9.062;2023-04-15T02:14:04;95999.22;;;4.41;67.15
76611;BME280;65503;48.534;9.062;2023-04-15T02:16:31;95992.88;;;4.37;67.55
76611;BME280;65503;48.534;9.062;2023-04-15T02:18:59;96004.13;;;4.31;67.66
76611;BME280;65503;48.534;9.062;2023-04-15T02:21:26;95997.75;;;4.27;67.89
76611;BME280;65503;48.534;9.062;2023-04-15T02:23:52;95991.75;;;4.26;67.58
76611;BME280;65503;48.534;9.062;2023-04-15T02:26:19;95996.16;;;4.26;66.66
76611;BME280;65503;48.534;9.062;2023-04-15T02:28:46;95999.19;;;4.23;67.72
76611;BME280;65503;48.534;9.062;2023-04-15T02:31:12;95993.97;;;4.23;67.87
76611;BME280;65503;48.534;9.062;2023-04-15T02:33:39;95989.78;;;4.22;67.28
76611;BME280;65503;48.534;9.062;2023-04-15T02:36:05;95991.22;;;4.18;67.24
76611;BME280;65503;48.534;9.062;2023-04-15T02:38:33;95998.63;;;4.21;67.24
76611;BME280;65503;48.534;9.062;2023-04-15T02:41:00;95984.00;;;4.20;67.34
76611;BME280;65503;48.534;9.062;2023-04-15T02:43:26;95988.63;;;4.18;67.38
76611;BME280;65503;48.534;9.062;2023-04-15T02:45:53;95995.41;;;4.19;67.79
76611;BME280;65503;48.534;9.062;2023-04-15T02:48:19;95995.41;;;4.19;66.86
76611;BME280;65503;48.534;9.062;2023-04-15T02:50:46;95997.44;;;4.16;67.10
76611;BME280;65503;48.534;9.062;2023-04-15T02:53:13;95993.88;;;4.11;67.46
76611;BME280;65503;48.534;9.062;2023-04-15T02:55:40;95993.91;;;4.04;67.78
76611;BME280;65503;48.534;9.062;2023-04-15T02:58:06;95999.56;;;4.01;67.54
76611;BME280;65503;48.534;9.062;2023-04-15T03:00:33;95995.00;;;3.97;67.63
76611;BME280;65503;48.534;9.062;2023-04-15T03:03:04;96001.25;;;3.89;68.77
76611;BME280;65503;48.534;9.062;2023-04-15T03:05:31;95992.53;;;3.77;69.00
76611;BME280;65503;48.534;9.062;2023-04-15T03:07:57;95988.91;;;3.78;68.36
76611;BME280;65503;48.534;9.062;2023-04-15T03:10:24;95999.31;;;3.78;68.88
76611;BME280;65503;48.534;9.062;2023-04-15T03:12:50;96000.50;;;3.82;67.72
76611;BME280;65503;48.534;9.062;2023-04-15T03:15:17;95998.31;;;3.79;68.63
76611;BME280;65503;48.534;9.062;2023-04-15T03:17:43;96000.75;;;3.74;67.98
76611;BME280;65503;48.534;9.062;2023-04-15T03:20:09;95998.56;;;3.71;67.82
76611;BME280;65503;48.534;9.062;2023-04-15T03:22:36;96000.16;;;3.72;68.09
76611;BME280;65503;48.534;9.062;2023-04-15T03:25:03;95995.75;;;3.72;68.01
76611;BME280;65503;48.534;9.062;2023-04-15T03:27:29;95999.38;;;3.71;68.39
76611;BME280;65503;48.534;9.062;2023-04-15T03:29:56;95989.75;;;3.72;68.32
76611;BME280;65503;48.534;9.062;2023-04-15T03:32:23;95989.75;;;3.72;68.43
76611;BME280;65503;48.534;9.062;2023-04-15T03:34:49;95988.91;;;3.78;68.86
76611;BME280;65503;48.534;9.062;2023-04-15T03:37:16;95990.88;;;3.83;67.46
76611;BME280;65503;48.534;9.062;2023-04-15T03:39:42;95992.28;;;3.85;67.61
76611;BME280;65503;48.534;9.062;2023-04-15T03:42:09;95986.69;;;3.82;67.96
76611;BME280;65503;48.534;9.062;2023-04-15T03:44:35;95990.53;;;3.79;67.67
76611;BME280;65503;48.534;9.062;2023-04-15T03:47:02;95981.38;;;3.70;67.50
76611;BME280;65503;48.534;9.062;2023-04-15T03:49:28;95988.44;;;3.63;67.63
76611;BME280;65503;48.534;9.062;2023-04-15T03:51:55;95983.47;;;3.55;68.34
76611;BME280;65503;48.534;9.062;2023-04-15T03:54:21;95997.53;;;3.47;67.97
76611;BME280;65503;48.534;9.062;2023-04-15T03:56:48;95996.78;;;3.40;68.24
76611;BME280;65503;48.534;9.062;2023-04-15T03:59:14;95984.41;;;3.36;68.82
76611;BME280;65503;48.534;9.062;2023-04-15T04:01:41;95989.59;;;3.36;68.15
76611;BME280;65503;48.534;9.062;2023-04-15T04:04:07;95985.41;;;3.35;68.70
76611;BME280;65503;48.534;9.062;2023-04-15T04:06:34;95976.00;;;3.33;68.64
76611;BME280;65503;48.534;9.062;2023-04-15T04:09:01;95985.00;;;3.31;68.97
76611;BME280;65503;48.534;9.062;2023-04-15T04:11:28;95987.84;;;3.29;68.42
76611;BME280;65503;48.534;9.062;2023-04-15T04:13:54;95986.88;;;3.24;68.58
76611;BME280;65503;48.534;9.062;2023-04-15T04:16:21;95994.44;;;3.25;69.11
76611;BME280;65503;48.534;9.062;2023-04-15T04:18:47;95997.19;;;3.30;68.59
76611;BME280;65503;48.534;9.062;2023-04-15T04:21:14;95993.19;;;3.35;69.21
76611;BME280;65503;48.534;9.062;2023-04-15T04:23:40;95992.78;;;3.38;68.18
76611;BME280;65503;48.534;9.062;2023-04-15T04:26:07;95995.19;;;3.32;68.48
76611;BME280;65503;48.534;9.062;2023-04-15T04:28:33;95998.41;;;3.35;68.00
76611;BME280;65503;48.534;9.062;2023-04-15T04:31:01;95991.16;;;3.37;68.35
76611;BME280;65503;48.534;9.062;2023-04-15T04:33:27;96002.97;;;3.39;68.42
76611;BME280;65503;48.534;9.062;2023-04-15T04:35:54;96005.19;;;3.36;68.52
76611;BME280;65503;48.534;9.062;2023-04-15T04:38:20;96001.56;;;3.37;68.08
76611;BME280;65503;48.534;9.062;2023-04-15T04:40:47;96002.59;;;3.36;68.36
76611;BME280;65503;48.534;9.062;2023-04-15T04:43:13;96004.16;;;3.37;68.20
76611;BME280;65503;48.534;9.062;2023-04-15T04:45:41;96004.16;;;3.37;68.43
76611;BME280;65503;48.534;9.062;2023-04-15T04:48:08;96002.78;;;3.41;68.18
76611;BME280;65503;48.534;9.062;2023-04-15T04:50:35;96002.53;;;3.42;68.54
76611;BME280;65503;48.534;9.062;2023-04-15T04:53:02;96005.53;;;3.46;68.53
76611;BME280;65503;48.534;9.062;2023-04-15T04:55:29;96012.56;;;3.39;68.56
76611;BME280;65503;48.534;9.062;2023-04-15T04:57:57;96012.16;;;3.42;68.47
76611;BME280;65503;48.534;9.062;2023-04-15T05:00:24;96014.78;;;3.42;68.58
76611;BME280;65503;48.534;9.062;2023-04-15T05:02:50;96015.22;;;3.25;68.72
76611;BME280;65503;48.534;9.062;2023-04-15T05:05:17;96026.03;;;3.29;69.47
76611;BME280;65503;48.534;9.062;2023-04-15T05:07:44;96020.59;;;3.30;69.62
76611;BME280;65503;48.534;9.062;2023-04-15T05:10:10;96021.16;;;3.39;69.37
76611;BME280;65503;48.534;9.062;2023-04-15T05:12:37;96019.97;;;3.42;69.12
76611;BME280;65503;48.534;9.062;2023-04-15T05:15:05;96022.75;;;3.47;68.88
76611;BME280;65503;48.534;9.062;2023-04-15T05:17:31;96027.50;;;3.50;68.75
76611;BME280;65503;48.534;9.062;2023-04-15T05:20:01;96021.91;;;3.53;69.00
76611;BME280;65503;48.534;9.062;2023-04-15T05:22:28;96019.44;;;3.64;68.72
76611;BME280;65503;48.534;9.062;2023-04-15T05:24:55;96018.53;;;3.77;68.85
76611;BME280;65503;48.534;9.062;2023-04-15T05:27:21;96020.63;;;3.93;69.81
76611;BME280;65503;48.534;9.062;2023-04-15T05:29:49;96030.25;;;4.18;69.20
76611;BME280;65503;48.534;9.062;2023-04-15T05:32:15;96024.09;;;4.37;68.30
76611;BME280;65503;48.534;9.062;2023-04-15T05:34:42;96023.97;;;4.50;67.21
76611;BME280;65503;48.534;9.062;2023-04-15T05:37:09;96025.44;;;4.64;67.31
76611;BME280;65503;48.534;9.062;2023-04-15T05:39:35;96031.69;;;4.81;66.50
76611;BME280;65503;48.534;9.062;2023-04-15T05:42:02;96034.59;;;5.10;66.31
76611;BME280;65503;48.534;9.062;2023-04-15T05:44:28;96017.75;;;5.42;68.88
76611;BME280;65503;48.534;9.062;2023-04-15T05:46:55;96026.41;;;5.84;69.59
76611;BME280;65503;48.534;9.062;2023-04-15T05:49:22;96020.28;;;6.20;68.07
76611;BME280;65503;48.534;9.062;2023-04-15T05:51:48;96029.41;;;6.52;65.56
76611;BME280;65503;48.534;9.062;2023-04-15T05:54:15;96030.75;;;6.67;63.37
76611;BME280;65503;48.534;9.062;2023-04-15T05:56:45;96029.50;;;6.69;60.00
76611;BME280;65503;48.534;9.062;2023-04-15T05:59:11;96031.22;;;6.52;59.89
76611;BME280;65503;48.534;9.062;2023-04-15T06:01:38;96025.53;;;6.43;60.20
76611;BME280;65503;48.534;9.062;2023-04-15T06:04:05;96027.47;;;6.36;60.40
76611;BME280;65503;48.534;9.062;2023-04-15T06:06:32;96029.38;;;6.29;60.76
76611;BME280;65503;48.534;9.062;2023-04-15T06:08:58;96028.81;;;6.39;60.33
76611;BME280;65503;48.534;9.062;2023-04-15T06:11:25;96032.69;;;6.48;60.20
76611;BME280;65503;48.534;9.062;2023-04-15T06:13:52;96032.13;;;6.57;59.60
76611;BME280;65503;48.534;9.062;2023-04-15T06:16:18;96021.22;;;6.60;59.31
76611;BME280;65503;48.534;9.062;2023-04-15T06:18:45;96025.09;;;6.70;59.56
76611;BME280;65503;48.534;9.062;2023-04-15T06:21:11;96032.59;;;6.78;58.78
76611;BME280;65503;48.534;9.062;2023-04-15T06:23:38;96030.53;;;6.80;58.89
76611;BME280;65503;48.534;9.062;2023-04-15T06:26:06;96033.94;;;6.92;58.13
76611;BME280;65503;48.534;9.062;2023-04-15T06:28:33;96036.41;;;7.10;58.11
76611;BME280;65503;48.534;9.062;2023-04-15T06:30:59;96042.03;;;7.30;57.21
76611;BME280;65503;48.534;9.062;2023-04-15T06:33:27;96049.84;;;7.54;57.00
76611;BME280;65503;48.534;9.062;2023-04-15T06:35:53;96043.94;;;7.75;56.02
76611;BME280;65503;48.534;9.062;2023-04-15T06:38:20;96040.69;;;7.68;55.63
76611;BME280;65503;48.534;9.062;2023-04-15T06:40:47;96044.41;;;7.72;56.25
76611;BME280;65503;48.534;9.062;2023-04-15T06:43:13;96044.16;;;7.85;56.20
76611;BME280;65503;48.534;9.062;2023-04-15T06:45:40;96054.97;;;8.05;55.40
76611;BME280;65503;48.534;9.062;2023-04-15T06:48:07;96054.75;;;8.23;53.83
76611;BME280;65503;48.534;9.062;2023-04-15T06:50:33;96055.75;;;8.51;53.84
76611;BME280;65503;48.534;9.062;2023-04-15T06:53:01;96057.09;;;8.70;53.93
76611;BME280;65503;48.534;9.062;2023-04-15T06:55:28;96060.56;;;8.92;52.93
76611;BME280;65503;48.534;9.062;2023-04-15T06:57:54;96061.34;;;9.09;52.54
76611;BME280;65503;48.534;9.062;2023-04-15T07:00:21;96057.47;;;9.34;51.30
76611;BME280;65503;48.534;9.062;2023-04-15T07:02:47;96057.50;;;9.61;51.25
76611;BME280;65503;48.534;9.062;2023-04-15T07:05:14;96064.38;;;9.88;50.90
76611;BME280;65503;48.534;9.062;2023-04-15T07:07:40;96056.16;;;10.07;49.61
76611;BME280;65503;48.534;9.062;2023-04-15T07:10:07;96050.78;;;10.50;48.95
76611;BME280;65503;48.534;9.062;2023-04-15T07:12:35;96048.59;;;11.16;47.03
76611;BME280;65503;48.534;9.062;2023-04-15T07:15:02;96047.72;;;11.57;47.40
76611;BME280;65503;48.534;9.062;2023-04-15T07:17:29;96043.69;;;12.17;45.45
76611;BME280;65503;48.534;9.062;2023-04-15T07:19:56;96049.75;;;12.38;44.08
76611;BME280;65503;48.534;9.062;2023-04-15T07:22:22;96061.09;;;13.09;43.25
76611;BME280;65503;48.534;9.062;2023-04-15T07:24:49;96047.69;;;13.70;41.87
76611;BME280;65503;48.534;9.062;2023-04-15T07:27:15;96046.47;;;13.96;40.68
76611;BME280;65503;48.534;9.062;2023-04-15T07:29:43;96045.13;;;14.48;40.10
76611;BME280;65503;48.534;9.062;2023-04-15T07:32:09;96048.81;;;14.81;39.17
76611;BME280;65503;48.534;9.062;2023-04-15T07:34:36;96048.31;;;15.60;38.18
76611;BME280;65503;48.534;9.062;2023-04-15T07:37:03;96049.63;;;15.82;36.07
76611;BME280;65503;48.534;9.062;2023-04-15T07:39:30;96048.56;;;16.20;35.98
76611;BME280;65503;48.534;9.062;2023-04-15T07:41:57;96040.09;;;16.18;35.74
76611;BME280;65503;48.534;9.062;2023-04-15T07:44:25;96048.84;;;16.37;35.21
76611;BME280;65503;48.534;9.062;2023-04-15T07:46:52;96044.31;;;16.57;36.11
76611;BME280;65503;48.534;9.062;2023-04-15T07:49:18;96045.63;;;16.59;34.99
76611;BME280;65503;48.534;9.062;2023-04-15T07:51:46;96043.66;;;16.65;35.13
76611;BME280;65503;48.534;9.062;2023-04-15T07:54:14;96041.72;;;16.70;35.12
76611;BME280;65503;48.534;9.062;2023-04-15T07:56:41;96030.19;;;16.42;34.67
76611;BME280;65503;48.534;9.062;2023-04-15T07:59:08;96035.91;;;16.49;35.15
76611;BME280;65503;48.534;9.062;2023-04-15T08:01:35;96032.56;;;16.44;34.97
76611;BME280;65503;48.534;9.062;2023-04-15T08:04:02;96038.03;;;16.99;33.94
76611;BME280;65503;48.534;9.062;2023-04-15T08:06:29;96043.38;;;17.12;33.06
76611;BME280;65503;48.534;9.062;2023-04-15T08:08:56;96028.53;;;17.39;33.41
76611;BME280;65503;48.534;9.062;2023-04-15T08:11:22;96034.53;;;17.17;33.01
76611;BME280;65503;48.534;9.062;2023-04-15T08:13:49;96029.63;;;16.78;33.91
76611;BME280;65503;48.534;9.062;2023-04-15T08:16:22;96028.66;;;16.55;34.25
76611;BME280;65503;48.534;9.062;2023-04-15T08:18:52;96031.31;;;16.36;35.25
76611;BME280;65503;48.534;9.062;2023-04-15T08:21:19;96029.06;;;16.11;36.20
76611;BME280;65503;48.534;9.062;2023-04-15T08:23:46;96037.13;;;15.63;36.96
76611;BME280;65503;48.534;9.062;2023-04-15T08:26:14;96029.09;;;14.97;38.48
76611;BME280;65503;48.534;9.062;2023-04-15T08:28:42;96028.00;;;15.46;38.17
76611;BME280;65503;48.534;9.062;2023-04-15T08:31:09;96031.00;;;16.05;36.49
76611;BME280;65503;48.534;9.062;2023-04-15T08:33:36;96037.78;;;16.30;36.41
76611;BME280;65503;48.534;9.062;2023-04-15T08:36:03;96026.56;;;16.71;36.08
76611;BME280;65503;48.534;9.062;2023-04-15T08:38:29;96036.59;;;17.06;35.79
76611;BME280;65503;48.534;9.062;2023-04-15T08:40:57;96030.97;;;17.21;35.33
76611;BME280;65503;48.534;9.062;2023-04-15T08:43:32;96042.84;;;17.43;35.67
76611;BME280;65503;48.534;9.062;2023-04-15T08:45:59;96040.28;;;17.65;34.09
76611;BME280;65503;48.534;9.062;2023-04-15T08:48:32;96032.56;;;17.22;35.08
76611;BME280;65503;48.534;9.062;2023-04-15T08:51:00;96039.06;;;17.16;34.22
76611;BME280;65503;48.534;9.062;2023-04-15T08:53:28;96043.81;;;16.54;35.72
76611;BME280;65503;48.534;9.062;2023-04-15T08:55:56;96040.78;;;16.80;35.28
76611;BME280;65503;48.534;9.062;2023-04-15T08:58:23;96041.88;;;16.60;36.04
76611;BME280;65503;48.534;9.062;2023-04-15T09:00:50;96043.66;;;16.65;35.65
76611;BME280;65503;48.534;9.062;2023-04-15T09:03:17;96040.25;;;16.45;36.42
76611;BME280;65503;48.534;9.062;2023-04-15T09:05:44;96034.94;;;16.08;37.25
76611;BME280;65503;48.534;9.062;2023-04-15T09:08:11;96043.19;;;15.88;37.43
76611;BME280;65503;48.534;9.062;2023-04-15T09:10:37;96043.56;;;16.00;37.14
76611;BME280;65503;48.534;9.062;2023-04-15T09:13:04;96048.63;;;16.15;36.21
76611;BME280;65503;48.534;9.062;2023-04-15T09:15:31;96045.94;;;16.52;35.31
76611;BME280;65503;48.534;9.062;2023-04-15T09:17:58;96050.38;;;16.62;34.64
76611;BME280;65503;48.534;9.062;2023-04-15T09:20:24;96052.81;;;16.40;35.55
76611;BME280;65503;48.534;9.062;2023-04-15T09:22:51;96055.22;;;16.55;35.44
76611;BME280;65503;48.534;9.062;2023-04-15T09:25:25;96051.91;;;16.63;34.15
76611;BME280;65503;48.534;9.062;2023-04-15T09:27:56;96063.09;;;16.79;33.56
76611;BME280;65503;48.534;9.062;2023-04-15T09:30:24;96062.28;;;16.97;33.50
76611;BME280;65503;48.534;9.062;2023-04-15T09:32:52;96060.72;;;17.23;33.45
76611;BME280;65503;48.534;9.062;2023-04-15T09:35:20;96063.91;;;17.25;33.51
76611;BME280;65503;48.534;9.062;2023-04-15T09:37:51;96062.50;;;16.82;34.97
76611;BME280;65503;48.534;9.062;2023-04-15T09:40:34;96064.50;;;17.36;34.43
76611;BME280;65503;48.534;9.062;2023-04-15T09:43:02;96073.16;;;17.42;34.10
76611;BME280;65503;48.534;9.062;2023-04-15T09:45:31;96061.31;;;17.20;34.78
76611;BME280;65503;48.534;9.062;2023-04-15T09:50:40;96070.69;;;17.31;34.74
76611;BME280;65503;48.534;9.062;2023-04-15T09:53:18;96059.84;;;17.14;34.20
76611;BME280;65503;48.534;9.062;2023-04-15T09:55:48;96065.72;;;16.65;35.49
76611;BME280;65503;48.534;9.062;2023-04-15T09:58:26;96067.28;;;16.47;34.92
76611;BME280;65503;48.534;9.062;2023-04-15T10:00:54;96057.59;;;16.57;35.88
76611;BME280;65503;48.534;9.062;2023-04-15T10:03:27;96065.34;;;16.72;34.40
76611;BME280;65503;48.534;9.062;2023-04-15T10:05:55;96065.16;;;16.82;34.20
76611;BME280;65503;48.534;9.062;2023-04-15T10:08:24;96071.16;;;16.74;34.40
76611;BME280;65503;48.534;9.062;2023-04-15T10:10:51;96067.50;;;16.32;33.78
76611;BME280;65503;48.534;9.062;2023-04-15T10:13:19;96064.41;;;16.25;35.18
76611;BME280;65503;48.534;9.062;2023-04-15T10:15:50;96062.47;;;16.49;36.12
76611;BME280;65503;48.534;9.062;2023-04-15T10:18:19;96068.81;;;16.86;36.22
76611;BME280;65503;48.534;9.062;2023-04-15T10:20:47;96064.66;;;17.12;35.94
76611;BME280;65503;48.534;9.062;2023-04-15T10:23:14;96062.31;;;17.38;36.05
76611;BME280;65503;48.534;9.062;2023-04-15T10:25:41;96066.59;;;17.80;36.08
76611;BME280;65503;48.534;9.062;2023-04-15T10:28:07;96067.78;;;18.24;35.30
76611;BME280;65503;48.534;9.062;2023-04-15T10:30:35;96068.16;;;18.31;34.65
76611;BME280;65503;48.534;9.062;2023-04-15T10:33:02;96070.53;;;18.32;35.18
76611;BME280;65503;48.534;9.062;2023-04-15T10:35:30;96070.69;;;18.49;33.73
76611;BME280;65503;48.534;9.062;2023-04-15T10:37:57;96071.69;;;18.40;34.35
76611;BME280;65503;48.534;9.062;2023-04-15T10:40:31;96075.25;;;18.71;34.23
76611;BME280;65503;48.534;9.062;2023-04-15T10:42:59;96078.00;;;18.44;33.70
76611;BME280;65503;48.534;9.062;2023-04-15T10:45:30;96075.25;;;18.35;34.35
76611;BME280;65503;48.534;9.062;2023-04-15T10:48:00;96081.63;;;18.48;32.92
76611;BME280;65503;48.534;9.062;2023-04-15T10:50:32;96072.06;;;18.61;31.65
76611;BME280;65503;48.534;9.062;2023-04-15T10:53:02;96075.38;;;18.66;31.00
76611;BME280;65503;48.534;9.062;2023-04-15T10:55:33;96078.00;;;18.44;30.58
76611;BME280;65503;48.534;9.062;2023-04-15T10:58:00;96080.66;;;18.44;31.40
76611;BME280;65503;48.534;9.062;2023-04-15T11:00:29;96080.72;;;18.66;31.04
76611;BME280;65503;48.534;9.062;2023-04-15T11:03:07;96085.66;;;18.59;30.47
76611;BME280;65503;48.534;9.062;2023-04-15T11:08:07;96080.91;;;18.34;31.64
76611;BME280;65503;48.534;9.062;2023-04-15T11:13:03;96088.00;;;18.38;31.83
76611;BME280;65503;48.534;9.062;2023-04-15T11:15:46;96090.25;;;18.45;31.83
76611;BME280;65503;48.534;9.062;2023-04-15T11:20:50;96094.06;;;18.16;30.03
76611;BME280;65503;48.534;9.062;2023-04-15T11:23:18;96094.00;;;18.44;29.83
76611;BME280;65503;48.534;9.062;2023-04-15T11:25:45;96084.22;;;18.75;28.13
76611;BME280;65503;48.534;9.062;2023-04-15T11:28:12;96094.59;;;18.99;26.58
76611;BME280;65503;48.534;9.062;2023-04-15T11:30:39;96084.25;;;19.28;26.67
76611;BME280;65503;48.534;9.062;2023-04-15T11:33:08;96087.91;;;19.41;26.26
76611;BME280;65503;48.534;9.062;2023-04-15T11:35:35;96091.00;;;19.65;25.37
76611;BME280;65503;48.534;9.062;2023-04-15T11:38:07;96083.84;;;19.83;24.24
76611;BME280;65503;48.534;9.062;2023-04-15T11:40:34;96088.28;;;19.88;25.37
76611;BME280;65503;48.534;9.062;2023-04-15T11:43:12;96083.78;;;20.22;23.54
76611;BME280;65503;48.534;9.062;2023-04-15T11:48:23;96091.22;;;20.34;23.36
76611;BME280;65503;48.534;9.062;2023-04-15T11:50:59;96094.50;;;20.40;23.58
76611;BME280;65503;48.534;9.062;2023-04-15T11:53:46;96097.69;;;19.94;23.86
76611;BME280;65503;48.534;9.062;2023-04-15T11:56:23;96100.75;;;19.61;24.02
76611;BME280;65503;48.534;9.062;2023-04-15T11:58:52;96104.31;;;19.26;25.81
76611;BME280;65503;48.534;9.062;2023-04-15T12:01:19;96115.63;;;18.78;27.85
76611;BME280;65503;48.534;9.062;2023-04-15T12:03:46;96125.41;;;18.69;29.13
76611;BME280;65503;48.534;9.062;2023-04-15T12:06:24;96124.94;;;18.89;29.27
76611;BME280;65503;48.534;9.062;2023-04-15T12:11:47;96117.78;;;18.76;28.43
76611;BME280;65503;48.534;9.062;2023-04-15T12:16:43;96132.28;;;19.59;27.81
76611;BME280;65503;48.534;9.062;2023-04-15T12:19:22;96130.59;;;19.63;27.35
76611;BME280;65503;48.534;9.062;2023-04-15T12:21:49;96139.38;;;18.88;26.89
76611;BME280;65503;48.534;9.062;2023-04-15T12:24:19;96140.56;;;18.60;28.51
76611;BME280;65503;48.534;9.062;2023-04-15T12:26:49;96135.41;;;18.64;27.97
76611;BME280;65503;48.534;9.062;2023-04-15T12:29:16;96130.56;;;18.52;26.71
76611;BME280;65503;48.534;9.062;2023-04-15T12:31:51;96142.34;;;18.51;27.30
76611;BME280;65503;48.534;9.062;2023-04-15T12:36:53;96153.19;;;18.41;28.21
76611;BME280;65503;48.534;9.062;2023-04-15T12:39:25;96154.28;;;18.40;28.68
76611;BME280;65503;48.534;9.062;2023-04-15T12:41:54;96167.00;;;18.43;29.36
76611;BME280;65503;48.534;9.062;2023-04-15T12:44:22;96162.06;;;18.50;29.67
76611;BME280;65503;48.534;9.062;2023-04-15T12:46:50;96167.88;;;18.52;28.63
76611;BME280;65503;48.534;9.062;2023-04-15T12:49:19;96167.78;;;18.57;28.33
76611;BME280;65503;48.534;9.062;2023-04-15T12:51:50;96181.22;;;19.24;27.58
76611;BME280;65503;48.534;9.062;2023-04-15T12:54:17;96160.75;;;19.42;26.03
76611;BME280;65503;48.534;9.062;2023-04-15T12:56:45;96166.78;;;19.47;26.30
76611;BME280;65503;48.534;9.062;2023-04-15T12:59:12;96180.81;;;19.61;26.09
76611;BME280;65503;48.534;9.062;2023-04-15T13:01:39;96179.47;;;20.12;25.39
76611;BME280;65503;48.534;9.062;2023-04-15T13:04:06;96182.00;;;20.17;25.45
76611;BME280;65503;48.534;9.062;2023-04-15T13:06:32;96177.63;;;20.21;25.89
76611;BME280;65503;48.534;9.062;2023-04-15T13:08:59;96179.75;;;20.41;25.69
76611;BME280;65503;48.534;9.062;2023-04-15T13:11:28;96184.66;;;20.17;25.80
76611;BME280;65503;48.534;9.062;2023-04-15T13:13:56;96188.63;;;20.28;25.95
76611;BME280;65503;48.534;9.062;2023-04-15T13:16:23;96195.34;;;20.08;25.70
76611;BME280;65503;48.534;9.062;2023-04-15T13:18:50;96192.47;;;19.96;25.61
76611;BME280;65503;48.534;9.062;2023-04-15T13:21:16;96193.75;;;19.99;24.23
76611;BME280;65503;48.534;9.062;2023-04-15T13:23:43;96192.47;;;19.96;25.89
76611;BME280;65503;48.534;9.062;2023-04-15T13:26:10;96203.34;;;19.77;26.36
76611;BME280;65503;48.534;9.062;2023-04-15T13:28:36;96204.97;;;19.56;26.90
76611;BME280;65503;48.534;9.062;2023-04-15T13:31:04;96207.56;;;19.25;26.64